Time;durP1;ratioP1;P1;durP2;ratioP2;P2;SDS_P1;SDS_P2;PMS_P1;PMS_P2;Temp;Humidity;BMP_temperature;BMP_pressure;BME280_temperature;BME280_humidity;BME280_pressure;Samples;Min_cycle;Max_cycle;Signal;HPM_P1;HPM_P2
2021/05/26 00:00:28;;;;;;;2.40;1.25;;;;;;;7.06;60.01;99046.67;127218;1093;64417;-91
2021/05/26 00:03:18;;;;;;;;;;;;;;;7.10;60.16;99040.25;127262;1101;63769;-90
2021/05/26 00:06:35;;;;;;;3.97;1.33;;;;;;;7.14;60.08;99038.28;127135;1101;63186;-89
2021/05/26 00:09:40;;;;;;;7.07;1.50;;;;;;;7.18;60.03;99035.33;127142;1101;63026;-88
2021/05/26 00:12:31;;;;;;;4.75;1.55;;;;;;;7.23;59.48;99030.62;127251;1101;63770;-89
2021/05/26 00:19:54;;;;;;;;;;;;;;;;;;;;;
2021/05/26 00:22:46;;;;;;;4.80;1.40;;;;;;;7.37;59.48;99011.20;127321;1100;62755;-91
2021/05/26 00:25:29;;;;;;;4.03;1.60;;;;;;;7.40;60.07;99012.84;127325;1098;63572;-89
2021/05/26 00:28:25;;;;;;;2.17;1.17;;;;;;;7.41;60.25;99017.20;127345;1098;64201;-90
2021/05/26 00:31:06;;;;;;;3.27;1.43;;;;;;;7.41;60.34;99012.73;127306;1098;64192;-90
2021/05/26 00:38:27;;;;;;;3.27;1.70;;;;;;;7.30;59.74;99015.17;127295;1101;64214;-90
2021/05/26 00:41:42;;;;;;;;;;;;;;;;;;;;;
2021/05/26 00:45:12;;;;;;;;;;;;;;;;;;;;;
2021/05/26 00:48:12;;;;;;;2.95;1.70;;;;;;;7.21;59.99;99005.11;127028;1104;62338;-90
2021/05/26 00:50:52;;;;;;;6.20;1.60;;;;;;;7.21;60.70;99000.64;127114;1102;64365;-90
2021/05/26 00:53:35;;;;;;;4.07;1.57;;;;;;;7.21;60.24;99002.45;127223;1101;64208;-89
2021/05/26 00:56:52;;;;;;;;;;;;;;;;;;;;;
2021/05/26 00:59:33;;;;;;;;;;;;;;;;;;;;;
2021/05/26 01:02:20;;;;;;;6.93;1.93;;;;;;;6.95;60.56;99007.48;127031;1096;63008;-91
2021/05/26 01:05:04;;;;;;;3.00;1.63;;;;;;;6.86;60.18;99008.00;127361;1101;64294;-90
2021/05/26 01:07:38;;;;;;;5.37;1.63;;;;;;;6.76;60.74;98999.73;127024;1101;63453;-91
2021/05/26 01:10:26;;;;;;;2.80;1.77;;;;;;;6.70;60.43;99002.73;127028;1101;64159;-90
2021/05/26 01:13:24;;;;;;;;;;;;;;;;;;;;;
2021/05/26 01:16:26;;;;;;;2.17;1.47;;;;;;;6.69;60.70;99003.68;127364;1098;62827;-89
2021/05/26 01:19:33;;;;;;;4.10;1.70;;;;;;;6.73;61.11;99005.20;127393;1093;64188;-90
2021/05/26 01:22:30;;;;;;;2.67;1.23;;;;;;;6.80;61.49;99008.35;127919;1095;64175;-90
2021/05/26 01:25:24;;;;;;;2.87;1.63;;;;;;;6.86;61.10;99007.15;127695;1096;64262;-89
2021/05/26 01:28:15;;;;;;;3.60;1.60;;;;;;;6.94;61.08;99007.58;127645;1097;63384;-90
2021/05/26 01:30:53;;;;;;;4.10;1.70;;;;;;;6.98;61.10;99009.09;127667;1090;62360;-90
2021/05/26 01:33:44;;;;;;;8.63;2.37;;;;;;;7.02;61.77;99010.64;127753;1095;64339;-90
2021/05/26 01:36:34;;;;;;;;;;;;;;;;;;;;;
2021/05/26 01:39:17;;;;;;;;;;;;;;;7.07;61.57;99008.58;127968;1090;64182;-90
2021/05/26 01:41:52;;;;;;;3.37;1.80;;;;;;;7.08;61.29;99007.63;127724;1095;64251;-92
2021/05/26 01:44:59;;;;;;;3.60;2.00;;;;;;;7.07;61.54;99007.73;127616;1096;64179;-91
2021/05/26 01:47:59;;;;;;;3.53;1.70;;;;;;;7.03;61.45;99002.58;127870;1097;63032;-91
2021/05/26 01:50:55;;;;;;;2.63;1.63;;;;;;;6.99;61.12;99010.80;127790;1096;64201;-92
2021/05/26 01:54:02;;;;;;;3.03;1.73;;;;;;;6.93;61.18;99008.50;127942;1095;63108;-91
2021/05/26 01:56:37;;;;;;;3.57;1.53;;;;;;;6.87;61.76;99007.09;127979;1095;64195;-91
2021/05/26 01:59:27;;;;;;;;;;;;;;;;;;;;;
2021/05/26 02:02:57;;;;;;;5.73;1.97;;;;;;;6.80;61.40;99010.16;128095;1095;64328;-91
2021/05/26 02:05:30;;;;;;;2.83;1.50;;;;;;;6.81;61.33;99014.52;127805;1098;64191;-91
2021/05/26 02:08:46;;;;;;;;;;;;;;;;;;;;;
2021/05/26 02:14:30;;;;;;;6.57;1.97;;;;;;;6.77;62.01;99022.67;127920;1098;64218;-91
2021/05/26 02:17:09;;;;;;;6.00;2.50;;;;;;;6.70;62.00;99015.15;127957;1095;64218;-91
2021/05/26 02:19:48;;;;;;;3.67;1.90;;;;;;;6.61;61.60;99021.81;128158;1089;64253;-90
2021/05/26 02:22:32;;;;;;;4.67;1.80;;;;;;;6.51;62.16;99015.33;127816;1095;64195;-91
2021/05/26 02:25:42;;;;;;;4.73;1.63;;;;;;;6.45;62.06;99019.18;127747;1095;64256;-90
2021/05/26 02:28:32;;;;;;;;;;;;;;;;;;;;;
2021/05/26 02:31:32;;;;;;;3.40;2.20;;;;;;;6.38;62.07;99019.61;127772;1095;64208;-90
2021/05/26 02:34:10;;;;;;;4.67;1.83;;;;;;;6.35;61.85;99014.46;127806;1096;64131;-89
2021/05/26 02:37:17;;;;;;;;;;;;;;;;;;;;;
2021/05/26 02:40:17;;;;;;;9.50;1.90;;;;;;;6.37;61.77;99004.64;127775;1095;62587;-90
2021/05/26 02:42:59;;;;;;;5.47;1.97;;;;;;;6.42;62.22;99002.56;127657;1095;64404;-91
2021/05/26 02:45:40;;;;;;;2.77;1.63;;;;;;;6.46;62.41;99004.11;127738;1095;64237;-90
2021/05/26 02:48:27;;;;;;;3.33;1.87;;;;;;;6.52;62.55;99005.58;127723;1095;62585;-90
2021/05/26 02:51:13;;;;;;;6.20;2.07;;;;;;;6.56;62.06;99004.47;127695;1095;64291;-89
2021/05/26 02:53:45;;;;;;;;;;;;;;;6.58;62.81;99008.73;127757;1095;64615;-90
2021/05/26 02:56:30;;;;;;;5.83;3.27;;;;;;;6.59;61.97;99009.59;127717;1095;64194;-91
2021/05/26 03:00:34;;;;;;;;;;;;;;;;;;;;;
2021/05/26 03:20:12;;;;;;;;;;;;;;;;;;;;;
2021/05/26 03:23:43;;;;;;;;;;;;;;;;;;;;;
2021/05/26 03:45:04;;;;;;;3.60;1.73;;;;;;;7.58;62.94;98993.13;127805;1087;64214;-90
2021/05/26 03:48:09;;;;;;;2.25;1.45;;;;;;;7.70;62.45;98980.87;127603;1098;64232;-92
2021/05/26 03:51:13;;;;;;;;;;;;;;;;;;;;;
2021/05/26 03:54:43;;;;;;;3.33;1.77;;;;;;;7.93;62.34;98984.77;127828;1095;64209;-90
2021/05/26 03:57:47;;;;;;;8.63;2.10;;;;;;;8.02;62.31;98985.06;127575;1098;64242;-90
2021/05/26 04:01:08;;;;;;;;;;;;;;;;;;;;;
2021/05/26 04:03:59;;;;;;;1.80;1.40;;;;;;;8.25;62.35;98986.25;127280;1099;63001;-90
2021/05/26 04:07:03;;;;;;;;;;;;;;;;;;;;;
2021/05/26 04:09:51;;;;;;;5.00;1.97;;;;;;;8.65;62.47;98984.59;127303;1099;63402;-90
2021/05/26 04:12:54;;;;;;;4.57;1.57;;;;;;;8.87;62.15;98985.83;127281;1098;62469;-91
2021/05/26 04:15:38;;;;;;;3.63;1.90;;;;;;;9.01;62.25;98979.59;127320;1100;64190;-89
2021/05/26 04:18:48;;;;;;;9.90;1.73;;;;;;;9.20;61.85;98978.23;127390;1098;64307;-90
2021/05/26 04:21:35;;;;;;;15.30;2.50;;;;;;;9.35;61.87;98970.16;127268;1098;62831;-90
2021/05/26 04:24:48;;;;;;;7.10;2.33;;;;;;;9.52;61.84;98969.00;127543;1098;62716;-90
2021/05/26 04:27:24;;;;;;;4.90;2.10;;;;;;;9.65;61.71;98973.38;127135;1098;64198;-89
2021/05/26 04:30:11;;;;;;;4.67;2.07;;;;;;;9.84;61.76;98967.61;127151;1093;63208;-88
2021/05/26 04:33:06;;;;;;;6.03;2.00;;;;;;;10.07;61.53;98959.80;127102;1093;63805;-86
2021/05/26 04:35:45;;;;;;;5.67;2.50;;;;;;;10.34;61.49;98963.17;127402;1097;64249;-87
2021/05/26 04:38:34;;;;;;;8.37;2.40;;;;;;;10.60;61.16;98971.95;127689;1094;64194;-86
2021/05/26 04:41:13;;;;;;;5.77;2.47;;;;;;;10.90;60.98;98967.98;127467;1095;64211;-88
2021/05/26 04:43:56;;;;;;;7.00;2.20;;;;;;;11.08;60.87;98970.13;127462;1095;62959;-87
2021/05/26 04:46:31;;;;;;;9.75;2.50;;;;;;;11.23;61.30;98962.75;127417;1090;63528;-87
2021/05/26 04:49:18;;;;;;;5.73;2.50;;;;;;;11.35;61.15;98963.64;127524;1095;64309;-88
2021/05/26 04:51:56;;;;;;;8.77;3.33;;;;;;;11.46;61.25;98963.67;127458;1095;64217;-85
2021/05/26 04:54:33;;;;;;;4.33;2.07;;;;;;;11.55;60.68;98952.25;127722;1095;64211;-85
2021/05/26 04:57:12;;;;;;;6.10;2.27;;;;;;;11.59;60.66;98956.41;127409;1097;63808;-85
2021/05/26 04:59:51;;;;;;;10.03;2.87;;;;;;;11.60;60.83;98957.25;127763;1095;64162;-85
2021/05/26 05:02:32;;;;;;;15.75;2.98;;;;;;;11.59;60.76;98960.91;127409;1098;64294;-85
2021/05/26 05:05:18;;;;;;;5.47;1.97;;;;;;;11.60;60.80;98963.45;127440;1095;64430;-86
2021/05/26 05:08:08;;;;;;;3.67;2.33;;;;;;;11.61;61.02;98965.16;127380;1098;64214;-85
2021/05/26 05:11:06;;;;;;;6.37;2.63;;;;;;;11.54;60.82;98971.95;127462;1095;64194;-86
2021/05/26 05:13:50;;;;;;;9.10;3.07;;;;;;;11.43;60.70;98971.92;127463;1090;62477;-85
2021/05/26 05:16:38;;;;;;;5.87;1.73;;;;;;;11.30;60.51;98971.16;127406;1090;64416;-85
2021/05/26 05:19:14;;;;;;;9.50;2.20;;;;;;;11.19;60.93;98974.64;127455;1095;64410;-86
2021/05/26 05:21:46;;;;;;;9.43;2.10;;;;;;;11.29;60.78;98969.45;127726;1095;64358;-85
2021/05/26 05:24:18;;;;;;;7.10;1.90;;;;;;;11.67;60.91;98971.85;127448;1090;63760;-85
2021/05/26 05:26:51;;;;;;;7.43;2.40;;;;;;;12.11;60.57;98963.03;127740;1095;63714;-85
2021/05/26 05:29:20;;;;;;;5.23;2.00;;;;;;;12.51;60.40;98958.95;127456;1097;64326;-84
2021/05/26 05:31:52;;;;;;;9.13;2.83;;;;;;;12.95;60.33;98961.50;127663;1095;64154;-84
2021/05/26 05:34:26;;;;;;;9.13;2.50;;;;;;;13.43;60.19;98966.44;127472;1095;64191;-86
2021/05/26 05:37:06;;;;;;;5.60;2.80;;;;;;;13.93;59.99;98955.85;127420;1095;64408;-84
2021/05/26 05:39:49;;;;;;;10.33;5.40;;;;;;;14.36;59.85;98959.25;127380;1098;64224;-86
2021/05/26 05:42:16;;;;;;;7.73;4.20;;;;;;;14.50;59.69;98954.36;127450;1095;64182;-86
2021/05/26 05:44:54;;;;;;;6.20;2.70;;;;;;;14.58;59.59;98951.86;127452;1090;64422;-86
2021/05/26 05:47:34;;;;;;;5.70;2.00;;;;;;;14.72;59.32;98953.28;127346;1097;64294;-87
2021/05/26 05:50:18;;;;;;;5.27;2.03;;;;;;;14.69;58.94;98963.45;127468;1095;64216;-87
2021/05/26 05:53:07;;;;;;;;;;;;;;;;;;;;;
2021/05/26 05:55:49;;;;;;;5.97;1.83;;;;;;;14.58;59.00;98967.98;127376;1097;64320;-88
2021/05/26 05:58:47;;;;;;;9.50;2.30;;;;;;;14.47;58.99;98969.92;127625;1095;64188;-87
2021/05/26 06:01:30;;;;;;;7.27;1.93;;;;;;;14.37;59.07;98960.94;127520;1097;64361;-86
2021/05/26 06:04:05;;;;;;;4.53;2.00;;;;;;;14.30;59.07;98968.70;127453;1096;64218;-88
2021/05/26 06:06:43;;;;;;;11.55;2.80;;;;;;;14.34;59.17;98968.30;127434;1095;63438;-88
2021/05/26 06:09:20;;;;;;;5.13;2.20;;;;;;;14.45;59.19;98966.50;127379;1098;64282;-89
2021/05/26 06:11:59;;;;;;;5.77;1.97;;;;;;;14.46;58.69;98965.52;127425;1090;64237;-89
2021/05/26 06:14:37;;;;;;;5.53;1.60;;;;;;;14.41;58.53;98965.06;127454;1095;64243;-87
2021/05/26 06:17:13;;;;;;;4.63;2.13;;;;;;;14.36;58.52;98967.30;127421;1095;64284;-88
2021/05/26 06:20:00;;;;;;;2.37;1.43;;;;;;;14.41;58.75;98971.28;127458;1095;64221;-87
2021/05/26 06:22:44;;;;;;;11.45;1.73;;;;;;;14.53;58.53;98961.31;127386;1098;64266;-89
2021/05/26 06:25:22;;;;;;;12.63;2.03;;;;;;;14.63;58.37;98959.48;127423;1095;64175;-88
2021/05/26 06:28:01;;;;;;;3.27;1.50;;;;;;;14.73;57.99;98959.52;127454;1097;64422;-89
2021/05/26 06:30:36;;;;;;;5.50;2.00;;;;;;;14.77;57.96;98959.11;127456;1090;64229;-90
2021/05/26 06:33:13;;;;;;;7.57;1.57;;;;;;;14.81;57.83;98955.13;127402;1098;64214;-87
2021/05/26 06:35:48;;;;;;;8.47;1.57;;;;;;;14.78;57.84;98949.20;127589;1090;64272;-89
2021/05/26 06:38:27;;;;;;;6.67;1.63;;;;;;;14.85;57.83;98951.18;127374;1098;64389;-90
2021/05/26 06:41:04;;;;;;;5.27;1.80;;;;;;;15.01;57.88;98947.07;127398;1098;64224;-87
2021/05/26 06:43:43;;;;;;;5.55;1.80;;;;;;;15.22;57.86;98945.11;127361;1090;64313;-88
2021/05/26 06:46:23;;;;;;;4.60;2.15;;;;;;;15.28;57.45;98938.31;127405;1091;64269;-89
2021/05/26 06:48:58;;;;;;;4.47;1.70;;;;;;;15.30;57.50;98947.92;127370;1098;64289;-86
2021/05/26 06:51:33;;;;;;;5.63;1.77;;;;;;;15.32;57.55;98948.62;127352;1098;64147;-86
2021/05/26 06:54:11;;;;;;;11.20;2.37;;;;;;;15.30;57.43;98942.55;127426;1098;64195;-88
2021/05/26 06:56:43;;;;;;;4.93;1.73;;;;;;;15.31;57.15;98949.61;127410;1098;64313;-88
2021/05/26 06:59:21;;;;;;;5.50;1.73;;;;;;;15.26;57.23;98946.50;127384;1098;64316;-88
2021/05/26 07:01:57;;;;;;;8.37;2.03;;;;;;;15.32;57.33;98947.77;127230;1092;64253;-90
2021/05/26 07:04:33;;;;;;;3.95;1.60;;;;;;;15.35;56.91;98944.81;126644;1098;64342;-86
2021/05/26 07:07:11;;;;;;;4.70;1.60;;;;;;;15.45;57.10;98945.63;127316;1090;64266;-90
2021/05/26 07:09:43;;;;;;;8.40;1.97;;;;;;;15.51;57.05;98942.36;127412;1098;64495;-87
2021/05/26 07:12:12;;;;;;;6.83;1.70;;;;;;;15.49;56.78;98946.20;127327;1098;64198;-88
2021/05/26 07:14:46;;;;;;;5.37;2.00;;;;;;;15.43;57.17;98944.94;127385;1098;62616;-89
2021/05/26 07:17:21;;;;;;;3.83;1.67;;;;;;;15.39;57.25;98944.36;127385;1098;64285;-88
2021/05/26 07:19:59;;;;;;;6.05;2.25;;;;;;;15.35;57.30;98948.34;127381;1098;64227;-89
2021/05/26 07:22:38;;;;;;;4.60;1.70;;;;;;;15.39;57.22;98951.58;127382;1098;64285;-89
2021/05/26 07:25:12;;;;;;;14.23;3.13;;;;;;;15.41;57.05;98955.00;127404;1098;63822;-87
2021/05/26 07:27:48;;;;;;;5.57;1.70;;;;;;;15.35;56.87;98959.11;127381;1098;63773;-86
2021/05/26 07:30:30;;;;;;;4.63;2.00;;;;;;;15.34;56.86;98951.19;127402;1098;64224;-88
2021/05/26 07:33:05;;;;;;;3.53;1.80;;;;;;;15.48;56.71;98964.20;126862;1098;64284;-87
2021/05/26 07:35:48;;;;;;;4.07;1.70;;;;;;;15.51;56.84;98963.89;126770;1097;64462;-92
2021/05/26 07:38:26;;;;;;;7.23;1.90;;;;;;;15.64;56.84;98963.62;126832;1098;64338;-89
2021/05/26 07:41:19;;;;;;;7.90;2.03;;;;;;;15.75;56.29;98963.45;127495;1098;64223;-88
2021/05/26 07:44:25;;;;;;;10.25;1.80;;;;;;;15.71;56.46;98964.73;127087;1098;63024;-87
2021/05/26 07:47:15;;;;;;;5.37;1.57;;;;;;;15.81;56.52;98956.64;127012;1098;64188;-89
2021/05/26 07:50:34;;;;;;;24.30;3.10;;;;;;;16.04;56.46;98957.15;127594;1098;63415;-87
2021/05/26 07:53:07;;;;;;;5.55;1.45;;;;;;;16.25;56.00;98959.61;126298;1098;64259;-90
2021/05/26 07:56:13;;;;;;;5.63;1.73;;;;;;;16.41;55.77;98955.28;126748;1098;64422;-89
2021/05/26 07:59:29;;;;;;;;;;;;;;;;;;;;;
2021/05/26 08:02:45;;;;;;;4.10;1.40;;;;;;;16.69;55.94;98952.55;126985;1090;64137;-89
2021/05/26 08:05:28;;;;;;;5.53;2.07;;;;;;;16.82;55.40;98955.76;127041;1098;64256;-89
2021/05/26 08:08:38;;;;;;;5.27;2.03;;;;;;;16.95;55.34;98947.30;127379;1098;62937;-89
2021/05/26 08:11:20;;;;;;;6.73;2.23;;;;;;;17.13;55.37;98950.00;127387;1098;65650;-88
2021/05/26 08:14:48;;;;;;;5.70;1.30;;;;;;;17.14;54.95;98951.69;127397;1098;64198;-88
2021/05/26 08:17:28;;;;;;;;;;;;;;;17.19;55.44;98949.38;126571;1095;64466;-88
2021/05/26 08:20:27;;;;;;;11.60;1.97;;;;;;;17.36;55.09;98953.05;126931;1101;63509;-91
2021/05/26 08:23:03;;;;;;;7.60;1.43;;;;;;;17.72;54.89;98945.77;126728;1101;64448;-90
2021/05/26 08:25:45;;;;;;;6.00;2.00;;;;;;;18.04;54.77;98948.66;125770;1101;64340;-87
2021/05/26 08:28:42;;;;;;;3.97;2.10;;;;;;;18.25;54.46;98937.44;126407;1101;64310;-91
2021/05/26 08:31:31;;;;;;;7.83;2.13;;;;;;;18.42;54.56;98942.92;126586;1101;64380;-90
2021/05/26 08:34:27;;;;;;;8.00;2.00;;;;;;;18.55;54.40;98932.48;126991;1101;64304;-86
2021/05/26 08:37:04;;;;;;;7.47;2.20;;;;;;;18.66;54.21;98936.76;127021;1101;64268;-88
2021/05/26 08:39:51;;;;;;;5.80;1.70;;;;;;;18.72;54.09;98931.56;126943;1101;63038;-89
2021/05/26 08:42:38;;;;;;;6.13;2.00;;;;;;;18.74;54.35;98936.80;126014;1101;64226;-88
2021/05/26 08:45:16;;;;;;;11.50;2.00;;;;;;;18.79;53.83;98918.22;126369;1096;64198;-89
2021/05/26 08:48:09;;;;;;;13.13;2.20;;;;;;;18.75;53.88;98922.26;126180;1101;64243;-89
2021/05/26 08:50:53;;;;;;;10.50;1.87;;;;;;;18.91;53.58;98911.48;127080;1093;64227;-88
2021/05/26 08:53:49;;;;;;;11.77;3.43;;;;;;;19.06;53.40;98908.95;127019;1098;63235;-88
2021/05/26 08:56:40;;;;;;;11.18;2.10;;;;;;;19.05;53.55;98913.52;126366;1098;64326;-91
2021/05/26 08:59:23;;;;;;;7.77;2.10;;;;;;;19.03;53.31;98907.44;127337;1090;64412;-86
2021/05/26 09:02:13;;;;;;;9.27;1.77;;;;;;;19.27;53.74;98905.73;126725;1090;64361;-91
2021/05/26 09:05:00;;;;;;;9.23;3.27;;;;;;;19.53;53.64;98903.70;126055;1092;64316;-90
2021/05/26 09:07:36;;;;;;;17.73;2.50;;;;;;;19.67;53.10;98903.03;126665;1098;64230;-90
2021/05/26 09:10:07;;;;;;;12.07;1.70;;;;;;;19.79;52.81;98908.94;126619;1098;64281;-89
2021/05/26 09:12:50;;;;;;;15.13;2.30;;;;;;;19.90;52.90;98905.00;127372;1098;64153;-87
2021/05/26 09:15:59;;;;;;;;;;;;;;;;;;;;;
2021/05/26 09:18:52;;;;;;;13.77;2.30;;;;;;;19.77;51.53;98896.56;127424;1098;62989;-87
2021/05/26 09:22:27;;;;;;;12.83;2.10;;;;;;;19.42;52.04;98901.34;127436;1092;64243;-88
2021/05/26 09:25:35;;;;;;;7.47;2.03;;;;;;;19.30;52.11;98897.28;127307;1097;64358;-88
2021/05/26 09:28:56;;;;;;;10.17;1.80;;;;;;;19.23;52.28;98898.98;127382;1098;64256;-89
2021/05/26 09:31:54;;;;;;;5.97;2.20;;;;;;;19.12;52.26;98898.30;127206;1090;64323;-88
2021/05/26 09:34:40;;;;;;;13.70;2.63;;;;;;;18.78;51.68;98897.59;127372;1098;64159;-90
2021/05/26 09:46:12;;;;;;;9.63;1.67;;;;;;;18.16;52.15;98902.45;126638;1104;64393;-88
2021/05/26 09:48:40;;;;;;;13.37;2.20;;;;;;;17.89;51.19;98911.61;126552;1097;64412;-84
2021/05/26 09:51:31;;;;;;;21.23;3.27;;;;;;;17.58;51.13;98917.45;126596;1105;64230;-84
2021/05/26 09:54:20;;;;;;;13.87;1.70;;;;;;;17.33;51.33;98924.52;126635;1104;64363;-89
2021/05/26 09:57:11;;;;;;;7.27;1.70;;;;;;;17.15;51.75;98932.64;126593;1105;64345;-87
2021/05/26 09:59:44;;;;;;;5.77;1.60;;;;;;;17.05;51.47;98931.02;126607;1097;63670;-86
2021/05/26 10:02:27;;;;;;;9.53;2.00;;;;;;;17.01;51.72;98920.55;126630;1104;64204;-85
2021/05/26 10:05:14;;;;;;;17.07;2.00;;;;;;;16.89;51.96;98927.17;126584;1104;63089;-87
2021/05/26 10:08:28;;;;;;;7.63;2.03;;;;;;;16.80;51.95;98911.08;126618;1104;64425;-86
2021/05/26 10:11:23;;;;;;;9.73;1.93;;;;;;;16.74;52.10;98907.14;126458;1104;64246;-84
2021/05/26 10:13:58;;;;;;;7.05;2.03;;;;;;;16.75;52.06;98904.28;126669;1104;64400;-85
2021/05/26 10:16:36;;;;;;;6.97;1.50;;;;;;;16.82;52.23;98903.67;126634;1104;62889;-84
2021/05/26 10:19:14;;;;;;;7.80;2.33;;;;;;;17.10;52.38;98901.72;127201;1101;64137;-87
2021/05/26 10:21:58;;;;;;;6.77;2.37;;;;;;;17.41;52.03;98892.19;127219;1091;62412;-86
2021/05/26 10:24:28;;;;;;;9.07;2.10;;;;;;;17.72;52.06;98891.75;127394;1098;64198;-83
2021/05/26 10:27:12;;;;;;;3.75;1.90;;;;;;;17.96;51.40;98872.97;127377;1098;64130;-88
2021/05/26 10:29:47;;;;;;;6.63;1.50;;;;;;;18.14;51.38;98880.99;127429;1091;64312;-85
2021/05/26 10:32:31;;;;;;;25.47;3.07;;;;;;;18.14;50.23;98869.34;127508;1098;64112;-88
2021/05/26 10:35:17;;;;;;;5.47;1.73;;;;;;;17.99;50.53;98863.69;127427;1098;64355;-85
2021/05/26 10:37:58;;;;;;;13.63;2.47;;;;;;;18.02;50.28;98863.38;127393;1098;64224;-86
2021/05/26 10:40:36;;;;;;;73.00;5.43;;;;;;;18.08;50.38;98863.57;127399;1098;64007;-87
2021/05/26 10:43:38;;;;;;;38.10;4.37;;;;;;;18.08;49.84;98865.43;127401;1098;64355;-86
2021/05/26 10:46:10;;;;;;;11.50;1.80;;;;;;;17.97;50.04;98857.61;127400;1090;64323;-85
2021/05/26 10:48:41;;;;;;;8.37;1.60;;;;;;;17.85;49.84;98853.50;127436;1097;64190;-86
2021/05/26 10:51:23;;;;;;;6.43;1.87;;;;;;;17.76;50.13;98844.52;127362;1098;64221;-85
2021/05/26 10:54:02;;;;;;;8.53;1.63;;;;;;;17.92;50.83;98841.03;127428;1098;64452;-85
2021/05/26 10:56:43;;;;;;;22.43;3.20;;;;;;;18.37;50.71;98833.41;126782;1090;64218;-85
2021/05/26 10:59:18;;;;;;;20.03;2.10;;;;;;;18.70;50.19;98827.23;127431;1098;63758;-85
2021/05/26 11:02:11;;;;;;;10.10;2.03;;;;;;;18.91;50.21;98833.02;127386;1098;64171;-86
2021/05/26 11:04:49;;;;;;;9.93;1.73;;;;;;;19.03;49.71;98831.66;127374;1097;64355;-84
2021/05/26 11:07:35;;;;;;;6.47;1.63;;;;;;;18.87;49.77;98823.53;127407;1097;64246;-84
2021/05/26 11:10:15;;;;;;;15.23;2.10;;;;;;;18.80;49.61;98823.36;127391;1098;64320;-86
2021/05/26 11:13:07;;;;;;;21.37;2.80;;;;;;;18.76;49.70;98816.58;127364;1091;64096;-84
2021/05/26 11:15:56;;;;;;;24.47;2.60;;;;;;;18.49;49.32;98814.17;127400;1098;64352;-85
2021/05/26 11:21:33;;;;;;;;;;;;;;;;;;;;;
2021/05/26 11:24:32;;;;;;;5.93;3.27;;;;;;;18.86;49.78;98786.67;127407;1090;63442;-85
2021/05/26 11:27:27;;;;;;;9.57;3.17;;;;;;;19.42;49.33;98783.03;127421;1097;62900;-86
2021/05/26 11:30:22;;;;;;;17.90;3.23;;;;;;;19.86;48.84;98793.41;127350;1098;63465;-84
2021/05/26 11:33:13;;;;;;;13.90;2.80;;;;;;;19.89;47.94;98798.46;127369;1098;64147;-87
2021/05/26 11:36:05;;;;;;;;;;;;;;;;;;;;;
2021/05/26 11:39:14;;;;;;;7.23;1.47;;;;;;;19.97;48.46;98779.45;127352;1097;64253;-84
2021/05/26 11:42:06;;;;;;;6.17;1.40;;;;;;;19.71;47.43;98779.73;127407;1097;64261;-88
2021/05/26 11:45:24;;;;;;;45.77;5.23;;;;;;;19.66;47.74;98784.86;127393;1090;64352;-85
2021/05/26 11:48:11;;;;;;;7.35;1.75;;;;;;;19.95;48.18;98786.08;127373;1098;64336;-83
2021/05/26 11:50:49;;;;;;;14.53;2.00;;;;;;;20.06;47.71;98787.55;127388;1098;64310;-87
2021/05/26 11:53:33;;;;;;;54.53;3.90;;;;;;;19.88;47.69;98785.09;127406;1098;64191;-87
2021/05/26 11:56:16;;;;;;;17.90;2.27;;;;;;;19.63;48.03;98787.05;127385;1098;64227;-86
2021/05/26 11:59:03;;;;;;;;;;;;;;;;;;;;;
2021/05/26 12:01:42;;;;;;;10.07;1.70;;;;;;;19.75;47.88;98787.53;127313;1097;64204;-85
2021/05/26 12:04:24;;;;;;;21.07;2.00;;;;;;;19.70;47.73;98788.89;127416;1098;64227;-86
2021/05/26 12:06:59;;;;;;;13.00;1.60;;;;;;;19.77;47.68;98778.19;127192;1090;64358;-88
2021/05/26 12:09:35;;;;;;;9.10;1.93;;;;;;;19.82;47.12;98774.96;127381;1098;63099;-87
2021/05/26 12:12:25;;;;;;;11.20;2.50;;;;;;;19.86;47.31;98776.31;127396;1098;64208;-85
2021/05/26 12:15:20;;;;;;;64.00;4.93;;;;;;;19.75;46.95;98769.41;127314;1092;64459;-88
2021/05/26 12:17:51;;;;;;;31.20;4.30;;;;;;;19.52;47.24;98774.69;126995;1098;64383;-88
2021/05/26 12:20:27;;;;;;;60.05;4.10;;;;;;;19.29;46.90;98762.94;126434;1098;64333;-87
2021/05/26 12:23:15;;;;;;;77.55;6.10;;;;;;;19.11;46.74;98763.98;127287;1098;62318;-85
2021/05/26 12:25:52;;;;;;;21.47;3.37;;;;;;;19.03;46.82;98764.00;127392;1098;64191;-85
2021/05/26 12:28:32;;;;;;;15.60;1.80;;;;;;;18.94;46.96;98764.17;127350;1090;64216;-86
2021/05/26 12:31:18;;;;;;;31.67;3.17;;;;;;;18.75;46.80;98754.55;127106;1098;63538;-89
2021/05/26 12:34:05;;;;;;;32.97;3.70;;;;;;;18.57;46.87;98755.52;127375;1098;64192;-87
2021/05/26 12:36:53;;;;;;;19.83;2.50;;;;;;;18.45;46.86;98754.19;127384;1098;64191;-87
2021/05/26 12:39:24;;;;;;;60.20;5.50;;;;;;;18.19;46.61;98748.05;127372;1098;64298;-85
2021/05/26 12:41:58;;;;;;;56.03;4.70;;;;;;;17.90;46.71;98760.16;127394;1098;64236;-83
2021/05/26 12:44:39;;;;;;;11.67;2.07;;;;;;;17.72;46.84;98748.61;127392;1098;64505;-86
2021/05/26 12:47:20;;;;;;;6.43;1.43;;;;;;;17.65;47.19;98744.84;127367;1098;63109;-83
2021/05/26 12:49:48;;;;;;;4.60;1.40;;;;;;;17.67;47.13;98742.81;126379;1090;64192;-87
2021/05/26 12:52:39;;;;;;;13.00;2.00;;;;;;;17.70;47.39;98748.75;126033;1093;64306;-87
2021/05/26 12:55:24;;;;;;;21.45;2.90;;;;;;;17.64;46.91;98740.46;126433;1098;64217;-88
2021/05/26 12:58:10;;;;;;;12.30;2.68;;;;;;;17.40;47.03;98742.03;126586;1098;64292;-84
2021/05/26 13:00:42;;;;;;;10.57;2.00;;;;;;;17.29;47.27;98750.41;126930;1098;64303;-83
2021/05/26 13:03:19;;;;;;;19.67;2.83;;;;;;;17.15;47.30;98756.41;126243;1098;64217;-87
2021/05/26 13:05:53;;;;;;;19.83;3.80;;;;;;;16.98;47.43;98777.87;126250;1098;64330;-85
2021/05/26 13:08:25;;;;;;;8.27;2.30;;;;;;;16.90;47.53;98775.12;126565;1097;64333;-90
2021/05/26 13:11:06;;;;;;;8.13;2.10;;;;;;;16.96;47.58;98776.34;126469;1098;64297;-85
2021/05/26 13:13:40;;;;;;;8.43;1.70;;;;;;;17.09;47.33;98776.77;126582;1098;64333;-90
2021/05/26 13:16:20;;;;;;;15.87;2.47;;;;;;;17.11;47.63;98772.05;127399;1090;64307;-85
2021/05/26 13:18:55;;;;;;;11.50;2.40;;;;;;;17.16;47.55;98760.79;126923;1098;64434;-86
2021/05/26 13:21:33;;;;;;;9.05;1.75;;;;;;;17.24;47.69;98763.53;126320;1090;64280;-85
2021/05/26 13:24:03;;;;;;;10.97;3.13;;;;;;;17.23;47.52;98753.74;127137;1098;64294;-87
2021/05/26 13:26:34;;;;;;;3.77;1.80;;;;;;;17.21;47.67;98748.52;127351;1098;64268;-85
2021/05/26 13:29:06;;;;;;;8.57;1.90;;;;;;;17.22;47.65;98742.11;127404;1098;64275;-85
2021/05/26 13:31:41;;;;;;;4.67;1.17;;;;;;;17.15;47.53;98742.91;127410;1098;63340;-85
2021/05/26 13:34:08;;;;;;;9.55;1.50;;;;;;;17.09;47.23;98754.34;126686;1098;64419;-86
2021/05/26 13:36:36;;;;;;;8.80;1.60;;;;;;;16.97;47.45;98741.11;126059;1090;64367;-86
2021/05/26 13:39:08;;;;;;;9.77;1.80;;;;;;;16.94;47.59;98738.75;125676;1098;64301;-87
2021/05/26 13:41:57;;;;;;;15.03;2.83;;;;;;;16.98;47.57;98736.56;125982;1098;64310;-86
2021/05/26 13:44:38;;;;;;;2.80;1.70;;;;;;;16.97;47.73;98733.02;125950;1098;64217;-84
2021/05/26 13:47:17;;;;;;;10.07;3.10;;;;;;;16.89;47.67;98727.58;125658;1098;64464;-87
2021/05/26 13:49:58;;;;;;;5.03;2.40;;;;;;;16.88;47.74;98735.84;125750;1098;64303;-87
2021/05/26 13:52:26;;;;;;;9.63;2.60;;;;;;;16.85;47.65;98742.38;125675;1090;64367;-86
2021/05/26 13:55:04;;;;;;;10.67;1.40;;;;;;;16.86;47.64;98744.09;125731;1098;64300;-86
2021/05/26 13:57:41;;;;;;;16.30;1.90;;;;;;;16.84;47.58;98729.06;125706;1098;64317;-87
2021/05/26 14:00:19;;;;;;;7.60;1.80;;;;;;;16.76;47.54;98740.64;125660;1097;64262;-92
2021/05/26 14:02:59;;;;;;;42.50;4.40;;;;;;;16.71;47.68;98741.10;125729;1098;64336;-84
2021/05/26 14:05:43;;;;;;;2.30;1.10;;;;;;;16.72;47.59;98742.79;125812;1090;64316;-84
2021/05/26 14:08:22;;;;;;;13.17;2.03;;;;;;;16.74;47.83;98745.35;125544;1098;64402;-90
2021/05/26 14:10:55;;;;;;;11.30;1.90;;;;;;;16.77;47.70;98728.84;125719;1090;64304;-87
2021/05/26 14:13:27;;;;;;;;;;;;;;;16.78;48.02;98741.31;125800;1098;64273;-85
2021/05/26 14:16:06;;;;;;;34.37;4.17;;;;;;;16.82;47.91;98736.47;125670;1090;64265;-88
2021/05/26 14:18:45;;;;;;;3.63;1.20;;;;;;;16.74;47.79;98734.57;125605;1098;64396;-87
2021/05/26 14:21:21;;;;;;;23.50;2.53;;;;;;;16.65;47.59;98732.77;126215;1097;64312;-87
2021/05/26 14:23:50;;;;;;;11.77;1.97;;;;;;;16.53;47.88;98734.02;125917;1090;64290;-87
2021/05/26 14:26:25;;;;;;;15.73;1.90;;;;;;;16.48;47.87;98735.34;125805;1098;64419;-85